createdAt,value
2019-02-08T00:01:35.182Z,64.13
2019-02-08T00:04:05.047Z,56.63
2019-02-08T00:06:34.711Z,54.57
2019-02-08T00:09:05.850Z,60.40
2019-02-08T00:11:35.372Z,59.03
2019-02-08T00:14:05.830Z,58.00
2019-02-08T00:16:35.624Z,61.67
2019-02-08T00:19:04.982Z,62.47
2019-02-08T00:21:34.356Z,62.63
2019-02-08T00:24:03.710Z,63.23
2019-02-08T00:26:33.089Z,63.63
2019-02-08T00:29:02.616Z,59.70
2019-02-08T00:31:32.071Z,65.27
2019-02-08T00:34:01.447Z,59.63
2019-02-08T00:36:32.872Z,58.23
2019-02-08T00:39:02.265Z,83.97
2019-02-08T00:41:31.706Z,72.17
2019-02-08T00:44:01.454Z,55.13
2019-02-08T00:46:30.797Z,57.23
2019-02-08T00:49:00.106Z,62.40
2019-02-08T00:51:29.673Z,58.17
2019-02-08T00:53:59.163Z,62.83
2019-02-08T00:56:28.629Z,62.43
2019-02-08T00:58:57.943Z,62.33
2019-02-08T01:01:27.766Z,63.27
2019-02-08T01:03:57.161Z,63.93
2019-02-08T01:06:26.637Z,62.63
2019-02-08T01:08:56.733Z,58.03
2019-02-08T01:11:26.171Z,56.87
2019-02-08T01:13:55.443Z,52.80
2019-02-08T01:16:24.901Z,59.20
2019-02-08T01:18:55.410Z,58.17
2019-02-08T01:21:24.846Z,60.20
2019-02-08T01:23:54.170Z,62.00
2019-02-08T01:26:23.594Z,57.13
2019-02-08T01:28:52.897Z,61.53
2019-02-08T01:31:22.587Z,61.73
2019-02-08T01:33:51.850Z,59.73
2019-02-08T01:36:21.227Z,71.53
2019-02-08T01:38:50.485Z,77.13
2019-02-08T01:41:20.000Z,74.70
2019-02-08T01:43:49.384Z,76.17
2019-02-08T01:46:19.808Z,74.93
2019-02-08T01:48:49.137Z,84.93
2019-02-08T01:51:18.688Z,81.50
2019-02-08T01:53:48.909Z,75.90
2019-02-08T01:56:18.437Z,63.03
2019-02-08T01:58:47.901Z,58.23
2019-02-08T02:01:17.285Z,60.67
2019-02-08T02:03:46.687Z,67.47
2019-02-08T02:06:15.973Z,74.27
2019-02-08T02:08:45.761Z,81.73
2019-02-08T02:11:15.130Z,61.60
2019-02-08T02:13:45.469Z,63.77
2019-02-08T02:16:14.761Z,65.37
2019-02-08T02:18:44.149Z,77.13
2019-02-08T02:21:13.494Z,74.00
2019-02-08T02:23:42.944Z,71.10
2019-02-08T02:26:12.187Z,65.30
2019-02-08T02:28:41.576Z,68.33
2019-02-08T02:31:11.155Z,64.30
2019-02-08T02:33:40.704Z,61.87
2019-02-08T02:36:10.149Z,58.33
2019-02-08T02:38:39.427Z,63.27
2019-02-08T02:41:08.836Z,59.53
2019-02-08T02:43:38.150Z,60.60
2019-02-08T02:46:07.796Z,61.53
2019-02-08T02:48:37.127Z,61.03
2019-02-08T02:51:06.429Z,55.30
2019-02-08T02:53:35.838Z,58.63
2019-02-08T02:56:05.300Z,59.77
2019-02-08T02:58:34.842Z,53.40
2019-02-08T03:01:04.681Z,58.27
2019-02-08T03:03:34.150Z,53.90
2019-02-08T03:06:03.617Z,58.23
2019-02-08T03:08:32.875Z,53.10
2019-02-08T03:11:02.315Z,55.50
2019-02-08T03:13:31.617Z,51.13
2019-02-08T03:16:00.913Z,52.00
2019-02-08T03:18:31.322Z,57.00
2019-02-08T03:21:00.625Z,51.27
2019-02-08T03:23:30.061Z,52.00
2019-02-08T03:25:59.350Z,55.70
2019-02-08T03:28:28.850Z,55.80
2019-02-08T03:30:58.865Z,53.10
2019-02-08T03:33:28.334Z,51.67
2019-02-08T03:35:57.730Z,55.67
2019-02-08T03:38:27.041Z,56.00
2019-02-08T03:40:56.445Z,55.73
2019-02-08T03:43:25.781Z,57.97
2019-02-08T03:45:55.062Z,56.73
2019-02-08T03:48:24.419Z,60.37
2019-02-08T03:50:53.830Z,61.67
2019-02-08T03:53:23.064Z,61.67
2019-02-08T03:55:58.397Z,60.83
2019-02-08T03:58:24.547Z,64.87
2019-02-08T04:01:07.049Z,63.77
2019-02-08T04:03:36.413Z,70.70
2019-02-08T04:06:06.646Z,72.43
2019-02-08T04:08:36.185Z,67.23
2019-02-08T04:11:05.676Z,70.97
2019-02-08T04:13:35.191Z,69.23
2019-02-08T04:16:05.557Z,77.20
2019-02-08T04:18:34.989Z,74.27
2019-02-08T04:21:04.351Z,77.03
2019-02-08T04:23:33.743Z,73.07
2019-02-08T04:26:02.997Z,75.83
2019-02-08T04:28:32.354Z,69.60
2019-02-08T04:31:01.837Z,68.00
2019-02-08T04:33:31.149Z,72.63
2019-02-08T04:36:00.623Z,71.67
2019-02-08T04:38:29.883Z,66.83
2019-02-08T04:40:59.189Z,70.97
2019-02-08T04:43:28.666Z,70.20
2019-02-08T04:45:58.015Z,68.97
2019-02-08T04:48:27.557Z,67.97
2019-02-08T04:50:57.044Z,64.97
2019-02-08T04:53:26.982Z,65.57
2019-02-08T04:55:56.464Z,66.27
2019-02-08T04:58:25.879Z,65.57
2019-02-08T05:00:55.437Z,62.53
2019-02-08T05:03:24.665Z,61.53
2019-02-08T05:05:55.107Z,57.57
2019-02-08T05:08:24.330Z,55.60
2019-02-08T05:10:54.065Z,61.13
2019-02-08T05:13:23.305Z,63.47
2019-02-08T05:15:52.704Z,59.17
2019-02-08T05:18:21.977Z,54.97
2019-02-08T05:20:51.336Z,53.87
2019-02-08T05:23:20.741Z,53.30
2019-02-08T05:25:50.161Z,48.90
2019-02-08T05:28:19.422Z,54.23
2019-02-08T05:30:48.914Z,56.10
2019-02-08T05:33:18.218Z,57.83
2019-02-08T05:35:48.677Z,54.53
2019-02-08T05:38:17.985Z,52.57
2019-02-08T05:40:47.829Z,47.23
2019-02-08T05:43:17.193Z,49.37
2019-02-08T05:45:46.708Z,53.90
2019-02-08T05:48:16.053Z,49.10
2019-02-08T05:50:45.319Z,39.60
2019-02-08T05:53:15.763Z,45.00
2019-02-08T05:55:45.080Z,43.50
2019-02-08T05:58:14.556Z,44.27
2019-02-08T06:01:07.529Z,40.43
2019-02-08T06:03:37.263Z,34.23
2019-02-08T06:06:06.598Z,35.00
2019-02-08T06:08:35.854Z,36.70
2019-02-08T06:11:05.397Z,31.67
2019-02-08T06:13:34.931Z,28.70
2019-02-08T06:16:04.291Z,26.07
2019-02-08T06:18:33.559Z,29.83
2019-02-08T06:21:02.834Z,27.67
2019-02-08T06:23:32.631Z,25.63
2019-02-08T06:26:01.927Z,32.00
2019-02-08T06:28:31.814Z,28.13
2019-02-08T06:31:01.109Z,30.53
2019-02-08T06:33:31.502Z,26.17
2019-02-08T06:36:00.809Z,26.97
2019-02-08T06:38:30.305Z,23.57
2019-02-08T06:40:59.637Z,23.27
2019-02-08T06:43:29.059Z,22.57
2019-02-08T06:45:58.376Z,24.33
2019-02-08T06:48:27.875Z,22.67
2019-02-08T06:50:57.128Z,25.63
2019-02-08T06:53:26.679Z,21.07
2019-02-08T06:55:55.988Z,24.27
2019-02-08T06:58:38.646Z,21.40
2019-02-08T07:01:26.696Z,23.97
2019-02-08T07:04:14.222Z,23.20
2019-02-08T07:07:14.647Z,20.10
2019-02-08T07:09:58.166Z,26.10
2019-02-08T07:12:42.183Z,23.93
2019-02-08T07:15:30.569Z,20.57
2019-02-08T07:18:25.014Z,22.97
2019-02-08T07:21:19.427Z,22.93
2019-02-08T07:24:16.815Z,25.93
2019-02-08T07:27:11.289Z,22.40
2019-02-08T07:29:53.215Z,21.40
2019-02-08T07:32:53.722Z,22.60
2019-02-08T07:35:30.205Z,26.97
2019-02-08T07:38:38.452Z,21.20
2019-02-08T07:41:37.289Z,17.27
2019-02-08T07:44:19.815Z,17.03
2019-02-08T07:47:09.882Z,20.10
2019-02-08T07:50:08.874Z,18.77
2019-02-08T07:52:52.054Z,18.80
2019-02-08T07:55:40.742Z,14.93
2019-02-08T07:58:32.219Z,15.37
2019-02-08T08:01:21.958Z,15.10
2019-02-08T08:04:01.730Z,14.60
2019-02-08T08:06:53.167Z,14.63
2019-02-08T08:09:30.363Z,15.30
2019-02-08T08:12:08.062Z,13.93
2019-02-08T08:15:00.561Z,13.70
2019-02-08T08:17:51.706Z,16.53
2019-02-08T08:20:41.458Z,14.33
2019-02-08T08:23:27.646Z,18.43
2019-02-08T08:26:32.973Z,15.03
2019-02-08T08:29:30.535Z,16.60
2019-02-08T08:32:13.455Z,14.60
2019-02-08T08:35:09.356Z,15.83
2019-02-08T08:38:17.565Z,16.13
2019-02-08T08:41:25.704Z,12.27
2019-02-08T08:44:40.396Z,12.83
2019-02-08T08:47:44.757Z,15.30
2019-02-08T08:50:44.862Z,17.60
2019-02-08T08:53:46.812Z,12.53
2019-02-08T08:57:02.128Z,17.63
2019-02-08T09:00:11.623Z,14.33
2019-02-08T09:03:14.689Z,14.77
2019-02-08T09:06:08.943Z,14.13
2019-02-08T09:08:56.513Z,21.00
2019-02-08T09:11:46.180Z,10.53
2019-02-08T09:15:08.636Z,11.73
2019-02-08T09:18:09.858Z,12.27
2019-02-08T09:21:29.263Z,12.67
2019-02-08T09:24:23.195Z,13.63
2019-02-08T09:27:42.449Z,13.93
2019-02-08T09:30:47.490Z,11.57
2019-02-08T09:33:51.152Z,11.17
2019-02-08T09:36:54.642Z,13.37
2019-02-08T09:40:05.456Z,10.80
2019-02-08T09:43:11.944Z,12.67
2019-02-08T09:46:32.274Z,14.47
2019-02-08T09:49:45.415Z,14.67
2019-02-08T09:52:50.030Z,11.50
2019-02-08T09:55:58.305Z,12.93
2019-02-08T09:59:08.402Z,12.83
2019-02-08T10:02:21.868Z,16.63
2019-02-08T10:05:45.165Z,13.53
2019-02-08T10:08:53.792Z,13.87
2019-02-08T10:11:59.609Z,18.83
2019-02-08T10:15:12.674Z,17.27
2019-02-08T10:18:32.927Z,11.17
2019-02-08T10:21:45.805Z,15.00
2019-02-08T10:24:46.957Z,16.30
2019-02-08T10:28:06.998Z,9.53
2019-02-08T10:31:34.221Z,10.73
2019-02-08T10:34:51.885Z,16.35
2019-02-08T10:38:11.369Z,11.07
2019-02-08T10:41:31.343Z,10.85
2019-02-08T10:44:45.178Z,11.90
2019-02-08T10:48:11.474Z,12.83
2019-02-08T10:51:22.416Z,15.00
2019-02-08T10:54:26.284Z,8.80
2019-02-08T10:57:41.895Z,14.40
2019-02-08T11:01:04.344Z,14.03
2019-02-08T11:04:16.199Z,9.27
2019-02-08T11:07:15.712Z,8.30
2019-02-08T11:10:11.484Z,11.53
2019-02-08T11:13:14.928Z,12.77
2019-02-08T11:16:21.897Z,9.60
2019-02-08T11:19:23.922Z,14.07
2019-02-08T11:21:55.027Z,11.37
2019-02-08T11:24:27.278Z,12.87
2019-02-08T11:27:00.029Z,8.63
2019-02-08T11:29:29.741Z,13.80
2019-02-08T11:31:59.489Z,13.57
2019-02-08T11:34:28.860Z,14.93
2019-02-08T11:36:58.562Z,20.30
2019-02-08T11:39:28.095Z,15.40
2019-02-08T11:42:10.309Z,11.80
2019-02-08T11:44:40.573Z,9.90
2019-02-08T11:47:14.454Z,8.17
2019-02-08T11:49:43.860Z,7.77
2019-02-08T11:52:13.283Z,20.07
2019-02-08T11:54:42.773Z,11.37
2019-02-08T11:57:11.998Z,11.27
2019-02-08T11:59:42.451Z,14.00
2019-02-08T12:02:12.763Z,12.23
2019-02-08T12:04:42.642Z,15.17
2019-02-08T12:07:12.046Z,9.53
2019-02-08T12:09:41.459Z,10.20
2019-02-08T12:12:13.254Z,10.53
2019-02-08T12:14:42.501Z,12.30
2019-02-08T12:17:11.957Z,11.40
2019-02-08T12:19:41.277Z,8.77
2019-02-08T12:22:10.739Z,10.73
2019-02-08T12:24:40.082Z,17.83
2019-02-08T12:27:09.441Z,6.77
2019-02-08T12:29:41.081Z,8.57
2019-02-08T12:32:10.316Z,7.50
2019-02-08T12:34:39.746Z,9.90
2019-02-08T12:37:12.145Z,7.70
2019-02-08T12:39:43.723Z,11.53
2019-02-08T12:42:14.321Z,6.37
2019-02-08T12:44:43.680Z,9.73
2019-02-08T12:47:12.979Z,12.47
2019-02-08T12:49:42.574Z,12.40
2019-02-08T12:52:11.826Z,5.77
2019-02-08T12:54:41.096Z,7.17
2019-02-08T12:57:10.555Z,11.93
2019-02-08T12:59:40.119Z,6.90
2019-02-08T13:02:09.524Z,8.53
2019-02-08T13:04:38.895Z,18.40
2019-02-08T13:07:10.388Z,9.53
2019-02-08T13:09:39.785Z,8.27
2019-02-08T13:12:09.235Z,9.40
2019-02-08T13:14:38.642Z,9.30
2019-02-08T13:17:07.999Z,10.43
2019-02-08T13:19:38.527Z,7.13
2019-02-08T13:22:07.828Z,7.83
2019-02-08T13:24:37.366Z,9.93
2019-02-08T13:27:09.191Z,7.40
2019-02-08T13:29:38.615Z,6.07
2019-02-08T13:32:09.158Z,8.53
2019-02-08T13:34:39.610Z,10.90
2019-02-08T13:37:09.104Z,7.90
2019-02-08T13:39:38.543Z,12.97
2019-02-08T13:42:07.881Z,7.60
2019-02-08T13:44:38.456Z,9.50
2019-02-08T13:47:07.794Z,7.80
2019-02-08T13:49:37.486Z,8.50
2019-02-08T13:52:06.865Z,6.50
2019-02-08T13:54:36.220Z,6.10
2019-02-08T13:57:05.637Z,7.10
2019-02-08T13:59:35.137Z,6.97
2019-02-08T14:02:04.500Z,8.57
2019-02-08T14:04:35.054Z,10.83
2019-02-08T14:07:04.413Z,9.80
2019-02-08T14:09:34.025Z,12.53
2019-02-08T14:12:03.486Z,9.37
2019-02-08T14:14:35.508Z,8.57
2019-02-08T14:17:05.944Z,6.30
2019-02-08T14:19:36.471Z,7.33
2019-02-08T14:22:08.092Z,10.57
2019-02-08T14:24:37.556Z,11.63
2019-02-08T14:27:08.766Z,7.27
2019-02-08T14:29:38.334Z,8.13
2019-02-08T14:32:08.940Z,9.13
2019-02-08T14:34:43.535Z,6.60
2019-02-08T14:37:09.568Z,6.97
2019-02-08T14:39:39.032Z,6.43
2019-02-08T14:42:08.445Z,6.87
2019-02-08T14:44:37.942Z,9.37
2019-02-08T14:47:07.438Z,10.93
2019-02-08T14:49:36.876Z,5.43
2019-02-08T14:52:06.201Z,10.03
2019-02-08T14:54:35.844Z,8.20
2019-02-08T14:57:07.109Z,7.33
2019-02-08T14:59:36.602Z,8.83
2019-02-08T15:02:07.026Z,13.10
2019-02-08T15:04:36.543Z,6.07
2019-02-08T15:07:06.033Z,18.60
2019-02-08T15:09:35.640Z,11.57
2019-02-08T15:12:04.922Z,15.63
2019-02-08T15:14:34.287Z,7.80
2019-02-08T15:17:03.609Z,7.47
2019-02-08T15:19:33.074Z,9.60
2019-02-08T15:22:02.498Z,5.87
2019-02-08T15:24:32.036Z,19.33
2019-02-08T15:27:01.399Z,11.77
2019-02-08T15:29:30.825Z,11.20
2019-02-08T15:32:01.128Z,8.50
2019-02-08T15:34:30.566Z,9.17
2019-02-08T15:36:59.963Z,8.63
2019-02-08T15:39:29.511Z,8.90
2019-02-08T15:41:58.806Z,12.30
2019-02-08T15:44:28.850Z,19.40
2019-02-08T15:46:58.226Z,11.37
2019-02-08T15:49:27.985Z,7.40
2019-02-08T15:52:16.858Z,14.43
2019-02-08T15:54:46.236Z,7.83
2019-02-08T15:57:17.030Z,7.70
2019-02-08T15:59:46.631Z,12.33
2019-02-08T16:02:15.912Z,29.63
2019-02-08T16:04:45.380Z,31.33
2019-02-08T16:07:14.722Z,41.07
2019-02-08T16:09:46.233Z,39.90
2019-02-08T16:12:18.567Z,39.93
2019-02-08T16:14:56.834Z,44.07
2019-02-08T16:17:28.366Z,46.90
2019-02-08T16:19:59.240Z,47.57
2019-02-08T16:22:30.571Z,57.27
2019-02-08T16:25:01.004Z,48.70
2019-02-08T16:27:40.135Z,55.40
2019-02-08T16:30:24.579Z,53.73
2019-02-08T16:32:55.981Z,54.27
2019-02-08T16:35:29.597Z,58.40
2019-02-08T16:38:12.303Z,51.10
2019-02-08T16:40:45.391Z,56.97
2019-02-08T16:43:15.038Z,53.03
2019-02-08T16:45:44.797Z,54.13
2019-02-08T16:48:14.488Z,51.47
2019-02-08T16:50:43.985Z,54.80
2019-02-08T16:53:13.841Z,56.97
2019-02-08T16:55:43.296Z,52.97
2019-02-08T16:58:13.358Z,56.60
2019-02-08T17:00:43.261Z,55.57
2019-02-08T17:03:13.186Z,54.00
2019-02-08T17:05:43.186Z,52.97
2019-02-08T17:08:12.418Z,50.53
2019-02-08T17:10:43.462Z,47.63
2019-02-08T17:13:14.401Z,51.10
2019-02-08T17:15:44.417Z,51.37
2019-02-08T17:18:14.802Z,75.50
2019-02-08T17:20:45.950Z,56.37
2019-02-08T17:23:15.613Z,53.90
2019-02-08T17:25:45.078Z,51.43
2019-02-08T17:28:14.579Z,54.30
2019-02-08T17:30:44.169Z,58.80
2019-02-08T17:33:13.519Z,58.37
2019-02-08T17:35:42.991Z,59.67
2019-02-08T17:38:12.273Z,65.73
2019-02-08T17:40:44.006Z,64.33
2019-02-08T17:43:13.669Z,57.93
2019-02-08T17:45:43.119Z,58.20
2019-02-08T17:48:14.545Z,63.87
2019-02-08T17:50:44.190Z,53.30
2019-02-08T17:53:16.296Z,57.13
2019-02-08T17:55:48.480Z,64.30
2019-02-08T17:58:17.958Z,58.27
2019-02-08T18:00:54.417Z,54.23
2019-02-08T18:03:24.000Z,57.53
2019-02-08T18:05:53.511Z,59.10
2019-02-08T18:08:22.853Z,55.03
2019-02-08T18:10:52.228Z,55.43
2019-02-08T18:13:21.497Z,62.90
2019-02-08T18:15:51.050Z,53.33
2019-02-08T18:18:22.348Z,58.33
2019-02-08T18:20:54.534Z,58.60
2019-02-08T18:23:23.762Z,56.63
2019-02-08T18:25:53.483Z,53.93
2019-02-08T18:28:22.910Z,75.87
2019-02-08T18:30:53.260Z,54.57
2019-02-08T18:33:22.889Z,53.93
2019-02-08T18:35:52.370Z,56.10
2019-02-08T18:38:21.732Z,63.60
2019-02-08T18:40:52.144Z,62.37
2019-02-08T18:43:25.145Z,57.60
2019-02-08T18:45:57.213Z,61.73
2019-02-08T18:48:27.803Z,61.50
2019-02-08T18:50:57.140Z,74.37
2019-02-08T18:53:26.920Z,59.13
2019-02-08T18:55:56.255Z,56.37
2019-02-08T18:58:28.381Z,61.07
2019-02-08T19:00:58.027Z,63.40
2019-02-08T19:03:27.539Z,55.70
2019-02-08T19:05:57.083Z,56.97
2019-02-08T19:08:26.380Z,54.57
2019-02-08T19:10:56.060Z,55.43
2019-02-08T19:13:25.735Z,61.60
2019-02-08T19:15:55.314Z,53.20
2019-02-08T19:18:26.161Z,59.27
2019-02-08T19:21:00.134Z,60.70
2019-02-08T19:23:29.573Z,59.17
2019-02-08T19:25:58.862Z,63.43
2019-02-08T19:28:30.586Z,62.40
2019-02-08T19:31:00.379Z,62.10
2019-02-08T19:33:32.937Z,57.90
2019-02-08T19:36:05.569Z,64.27
2019-02-08T19:38:44.501Z,60.20
2019-02-08T19:41:13.905Z,68.90
2019-02-08T19:43:44.633Z,64.90
2019-02-08T19:46:13.974Z,67.33
2019-02-08T19:48:53.241Z,62.33
2019-02-08T19:51:22.999Z,64.47
2019-02-08T19:53:57.199Z,65.40
2019-02-08T19:56:26.529Z,68.13
2019-02-08T19:58:55.891Z,69.47
2019-02-08T20:01:25.352Z,55.87
2019-02-08T20:03:54.677Z,58.23
2019-02-08T20:06:24.094Z,59.40
2019-02-08T20:08:53.349Z,61.00
2019-02-08T20:11:22.789Z,59.77
2019-02-08T20:13:52.092Z,71.63
2019-02-08T20:16:21.653Z,69.47
2019-02-08T20:18:51.371Z,65.63
2019-02-08T20:21:20.817Z,67.33
2019-02-08T20:23:50.200Z,67.07
2019-02-08T20:26:21.906Z,65.33
2019-02-08T20:28:51.306Z,60.43
2019-02-08T20:31:22.264Z,62.17
2019-02-08T20:33:54.407Z,66.10
2019-02-08T20:36:23.974Z,62.50
2019-02-08T20:38:53.357Z,64.80
2019-02-08T20:41:22.921Z,63.13
2019-02-08T20:43:52.321Z,64.47
2019-02-08T20:46:21.734Z,63.80
2019-02-08T20:48:52.307Z,67.30
2019-02-08T20:51:22.898Z,80.13
2019-02-08T20:53:52.168Z,62.90
2019-02-08T20:56:22.024Z,61.17
2019-02-08T20:58:52.500Z,57.33
2019-02-08T21:01:26.730Z,65.30
2019-02-08T21:03:56.552Z,64.53
2019-02-08T21:06:26.294Z,64.13
2019-02-08T21:08:57.757Z,70.67
2019-02-08T21:11:27.300Z,67.20
2019-02-08T21:13:58.011Z,67.03
2019-02-08T21:16:28.033Z,69.87
2019-02-08T21:18:58.641Z,65.73
2019-02-08T21:21:28.118Z,62.80
2019-02-08T21:23:58.761Z,64.37
2019-02-08T21:26:28.438Z,65.63
2019-02-08T21:29:00.578Z,69.23
2019-02-08T21:31:56.611Z,63.70
2019-02-08T21:34:29.446Z,65.00
2019-02-08T21:37:02.510Z,62.20
2019-02-08T21:39:31.861Z,63.87
2019-02-08T21:42:01.652Z,65.17
2019-02-08T21:44:31.367Z,65.57
2019-02-08T21:47:00.799Z,71.30
2019-02-08T21:49:30.767Z,68.17
2019-02-08T21:52:00.211Z,69.10
2019-02-08T21:54:30.002Z,64.20
2019-02-08T21:57:00.648Z,66.23
2019-02-08T21:59:30.058Z,64.43
2019-02-08T22:01:59.491Z,70.37
2019-02-08T22:04:29.124Z,69.57
2019-02-08T22:06:59.885Z,68.53
2019-02-08T22:09:29.194Z,66.17
2019-02-08T22:11:58.719Z,77.63
2019-02-08T22:14:30.212Z,73.40
2019-02-08T22:17:02.281Z,79.60
2019-02-08T22:19:31.587Z,69.57
2019-02-08T22:22:03.969Z,78.60
2019-02-08T22:24:33.865Z,74.50
2019-02-08T22:27:07.389Z,76.23
2019-02-08T22:29:37.322Z,75.80
2019-02-08T22:32:07.230Z,80.00
2019-02-08T22:34:36.809Z,81.37
2019-02-08T22:37:06.694Z,78.67
2019-02-08T22:39:36.024Z,70.33
2019-02-08T22:42:05.486Z,81.40
2019-02-08T22:44:34.790Z,76.37
2019-02-08T22:47:04.404Z,77.40
2019-02-08T22:49:33.685Z,83.63
2019-02-08T22:52:03.142Z,83.17
2019-02-08T22:54:32.608Z,78.60
2019-02-08T22:57:01.913Z,77.47
2019-02-08T22:59:32.412Z,73.93
2019-02-08T23:02:02.020Z,81.37
2019-02-08T23:04:31.436Z,76.23
2019-02-08T23:07:02.161Z,78.70
2019-02-08T23:09:31.744Z,81.57
2019-02-08T23:12:01.103Z,86.83
2019-02-08T23:14:31.070Z,88.57
2019-02-08T23:17:02.670Z,81.20
2019-02-08T23:19:32.175Z,82.13
2019-02-08T23:22:01.502Z,79.60
2019-02-08T23:24:31.034Z,77.00
2019-02-08T23:27:00.343Z,76.47
2019-02-08T23:29:48.970Z,77.67
2019-02-08T23:32:18.232Z,75.70
2019-02-08T23:34:47.824Z,72.33
2019-02-08T23:37:17.150Z,73.70
2019-02-08T23:39:46.536Z,76.13
2019-02-08T23:42:15.797Z,73.83
2019-02-08T23:44:45.258Z,72.67
2019-02-08T23:47:14.505Z,72.17
2019-02-08T23:49:43.929Z,72.73
2019-02-08T23:52:13.329Z,71.47
2019-02-08T23:54:42.739Z,75.20
2019-02-08T23:57:18.405Z,73.50
2019-02-08T23:59:47.682Z,78.43
